Time;durP1;ratioP1;P1;durP2;ratioP2;P2;SDS_P1;SDS_P2;PMS_P1;PMS_P2;Temp;Humidity;BMP_temperature;BMP_pressure;BME280_temperature;BME280_humidity;BME280_pressure;Samples;Min_cycle;Max_cycle;Signal;HPM_P1;HPM_P2
2021/12/27 00:01:19;;;;;;;7.68;7.05;;;;;;;13.66;49.60;94299.88;5033058;28;20029;-63
2021/12/27 00:03:45;;;;;;;8.90;8.10;;;;;;;13.53;49.57;94288.50;5039495;28;20487;-63
2021/12/27 00:06:10;;;;;;;7.70;7.00;;;;;;;13.61;49.77;94286.78;5033121;28;20052;-63
2021/12/27 00:08:40;;;;;;;6.93;6.35;;;;;;;13.82;49.89;94322.06;5033024;28;20108;-63
2021/12/27 00:11:06;;;;;;;8.20;7.50;;;;;;;13.77;49.80;94314.31;5032799;28;20410;-63
2021/12/27 00:13:32;;;;;;;9.00;8.30;;;;;;;13.57;49.50;94288.59;5033208;28;20057;-63
2021/12/27 00:15:57;;;;;;;7.72;7.03;;;;;;;13.81;49.92;94325.06;5033070;28;20057;-65
2021/12/27 00:18:22;;;;;;;9.55;8.65;;;;;;;13.56;49.90;94298.50;5039653;28;20428;-65
2021/12/27 00:20:48;;;;;;;10.10;9.20;;;;;;;13.63;50.14;94308.59;5032180;28;20026;-65
2021/12/27 00:23:13;;;;;;;8.27;6.97;;;;;;;13.49;49.89;94285.72;5032956;28;20026;-64
2021/12/27 00:25:38;;;;;;;8.00;7.30;;;;;;;13.78;50.25;94326.56;5032860;28;20056;-64
2021/12/27 00:28:04;;;;;;;8.73;7.93;;;;;;;13.68;49.85;94309.13;5014995;28;20024;-64
2021/12/27 00:30:29;;;;;;;8.23;7.53;;;;;;;13.46;49.99;94272.28;5014855;28;20029;-64
2021/12/27 00:32:55;;;;;;;7.63;6.82;;;;;;;13.73;50.01;94308.09;5037802;28;20077;-65
2021/12/27 00:35:22;;;;;;;8.80;8.07;;;;;;;13.69;49.55;94288.53;5014814;28;20124;-64
2021/12/27 00:37:48;;;;;;;8.10;7.50;;;;;;;13.83;50.07;94322.84;5032727;28;20030;-64
2021/12/27 00:40:15;;;;;;;7.38;6.78;;;;;;;13.77;49.69;94311.63;5031958;28;20375;-64
2021/12/27 00:42:41;;;;;;;7.35;6.70;;;;;;;13.64;49.86;94294.88;5032713;28;20040;-64
2021/12/27 00:45:07;;;;;;;8.75;8.00;;;;;;;13.78;49.79;94316.63;5032576;28;20033;-64
2021/12/27 00:47:32;;;;;;;8.10;7.40;;;;;;;13.54;49.99;94274.03;5037291;28;20028;-64
2021/12/27 00:49:58;;;;;;;8.40;7.70;;;;;;;13.74;49.83;94298.94;5013925;28;20021;-64
2021/12/27 00:52:23;;;;;;;9.48;8.57;;;;;;;13.78;49.85;94308.63;5032323;28;20052;-64
2021/12/27 00:54:48;;;;;;;7.20;6.60;;;;;;;13.75;49.96;94311.97;5032404;28;20036;-65
2021/12/27 00:57:14;;;;;;;10.95;6.45;;;;;;;13.79;49.91;94314.75;5032407;28;20560;-64
2021/12/27 00:59:39;;;;;;;6.65;6.05;;;;;;;13.75;49.93;94300.50;5013947;28;20025;-64
2021/12/27 01:02:04;;;;;;;7.05;6.45;;;;;;;13.42;50.11;94252.72;5032732;28;20503;-64
2021/12/27 01:04:30;;;;;;;6.47;5.78;;;;;;;13.59;49.99;94276.44;5035241;28;20068;-64
2021/12/27 01:06:55;;;;;;;6.15;5.65;;;;;;;13.62;49.89;94285.69;5030831;28;20037;-65
2021/12/27 01:09:47;;;;;;;6.47;5.97;;;;;;;13.69;49.78;94309.91;5031451;28;20052;-65
2021/12/27 01:15:22;;;;;;;8.23;7.47;;;;;;;13.64;49.91;94310.16;5032413;28;20033;-64
2021/12/27 01:17:50;;;;;;;6.97;6.40;;;;;;;13.70;50.21;94322.13;5035290;28;20028;-64
2021/12/27 01:20:19;;;;;;;7.20;6.60;;;;;;;13.44;50.17;94285.97;5030771;28;20498;-64
2021/12/27 01:22:45;;;;;;;6.35;5.85;;;;;;;13.75;49.74;94322.66;5031930;28;20037;-64
2021/12/27 01:25:12;;;;;;;6.63;6.03;;;;;;;13.68;49.96;94327.06;5031786;28;20032;-64
2021/12/27 01:27:38;;;;;;;6.85;6.25;;;;;;;13.58;50.08;94295.50;5014224;28;20030;-65
2021/12/27 01:30:06;;;;;;;5.80;5.30;;;;;;;13.39;49.86;94298.81;5013226;28;20459;-65
2021/12/27 01:32:37;;;;;;;7.55;6.93;;;;;;;13.28;50.29;94279.84;5034737;28;20140;-64
2021/12/27 01:35:03;;;;;;;6.65;6.07;;;;;;;13.44;50.41;94295.88;5029949;28;20021;-65
2021/12/27 01:37:28;;;;;;;6.80;6.30;;;;;;;13.58;50.35;94322.22;5031567;28;20052;-65
2021/12/27 01:39:54;;;;;;;6.00;5.43;;;;;;;13.34;50.48;94273.13;5030679;28;20117;-65
2021/12/27 01:42:19;;;;;;;6.03;5.53;;;;;;;13.64;50.09;94313.59;5031253;28;20025;-63
2021/12/27 01:44:46;;;;;;;7.65;6.35;;;;;;;13.58;50.11;94293.59;5013612;28;20056;-64
2021/12/27 01:47:11;;;;;;;6.30;5.80;;;;;;;13.68;49.98;94305.69;5013543;28;20026;-63
2021/12/27 01:49:37;;;;;;;5.95;5.43;;;;;;;13.54;49.95;94279.38;5009984;28;20025;-63
2021/12/27 01:52:04;;;;;;;5.45;5.00;;;;;;;13.70;49.89;94293.50;5013359;28;20021;-63
2021/12/27 01:54:29;;;;;;;4.70;4.30;;;;;;;13.66;49.85;94284.63;5031445;28;20024;-63
2021/12/27 01:56:55;;;;;;;6.25;5.70;;;;;;;13.63;49.84;94271.19;5031320;28;20420;-63
2021/12/27 01:59:21;;;;;;;5.80;5.30;;;;;;;13.66;50.00;94275.84;5030611;28;20029;-63
2021/12/27 02:01:46;;;;;;;5.28;4.88;;;;;;;13.73;49.73;94289.38;5031182;28;20025;-63
2021/12/27 02:04:11;;;;;;;4.35;3.95;;;;;;;13.57;49.15;94296.63;5032780;28;20037;-63
2021/12/27 02:06:37;;;;;;;5.57;5.07;;;;;;;13.44;49.79;94253.16;5031006;28;20030;-63
2021/12/27 02:09:04;;;;;;;5.63;5.13;;;;;;;13.78;50.13;94302.50;5030230;28;20036;-63
2021/12/27 02:11:34;;;;;;;4.93;4.53;;;;;;;13.68;50.16;94292.31;5031150;28;20021;-63
2021/12/27 02:14:01;;;;;;;5.18;4.72;;;;;;;13.50;50.13;94273.16;5013171;28;20367;-63
2021/12/27 02:16:27;;;;;;;5.35;4.85;;;;;;;13.69;50.45;94301.88;5030952;28;20059;-63
2021/12/27 02:18:52;;;;;;;5.63;5.13;;;;;;;13.69;50.53;94299.22;5031256;28;20053;-63
2021/12/27 02:21:19;;;;;;;5.53;5.03;;;;;;;13.58;50.36;94285.56;5030945;28;20029;-63
2021/12/27 02:23:44;;;;;;;5.00;4.60;;;;;;;13.36;50.45;94244.19;5031481;28;20077;-63
2021/12/27 02:26:11;;;;;;;6.03;5.53;;;;;;;13.63;50.09;94288.00;5030795;28;20057;-63
2021/12/27 02:28:37;;;;;;;4.57;4.22;;;;;;;13.72;50.50;94290.50;5030323;28;20083;-63
2021/12/27 02:31:03;;;;;;;4.78;4.38;;;;;;;13.50;50.15;94262.47;5030307;28;20021;-63
2021/12/27 02:33:29;;;;;;;4.57;4.22;;;;;;;13.71;50.36;94294.28;5031303;28;20033;-63
2021/12/27 02:35:57;;;;;;;4.20;3.80;;;;;;;13.36;50.16;94240.72;5030305;28;20028;-63
2021/12/27 02:38:27;;;;;;;3.88;3.58;;;;;;;13.60;50.53;94280.66;5012347;28;20025;-64
2021/12/27 02:40:53;;;;;;;3.60;3.30;;;;;;;13.65;50.08;94284.97;5030126;28;20112;-64
2021/12/27 02:43:21;;;;;;;3.63;3.33;;;;;;;13.51;50.24;94272.81;5030467;28;20101;-63
2021/12/27 02:45:54;;;;;;;3.80;3.50;;;;;;;13.54;50.31;94287.38;5012696;28;20053;-63
2021/12/27 02:48:21;;;;;;;3.78;3.47;;;;;;;13.15;50.42;94225.66;5030184;28;20034;-63
2021/12/27 02:50:48;;;;;;;3.80;3.50;;;;;;;13.59;50.38;94281.78;5029734;28;20017;-63
2021/12/27 02:53:14;;;;;;;3.35;3.15;;;;;;;13.59;50.42;94284.44;5030290;28;20032;-63
2021/12/27 02:55:41;;;;;;;3.47;3.20;;;;;;;13.41;50.50;94264.50;5012548;28;20596;-63
2021/12/27 02:58:07;;;;;;;4.40;3.42;;;;;;;13.44;50.66;94266.50;5029952;28;20025;-63
2021/12/27 03:00:40;;;;;;;3.28;2.85;;;;;;;13.48;50.66;94278.06;5029972;28;20021;-64
2021/12/27 03:03:06;;;;;;;3.97;2.50;;;;;;;13.35;50.69;94269.31;5030918;28;20025;-64
2021/12/27 03:05:33;;;;;;;3.38;3.17;;;;;;;13.46;50.55;94289.09;5029792;28;20029;-63
2021/12/27 03:08:00;;;;;;;2.75;2.55;;;;;;;13.52;50.88;94285.06;5029926;28;20442;-63
2021/12/27 03:10:28;;;;;;;3.40;3.10;;;;;;;13.50;50.69;94292.63;5029530;28;20026;-64
2021/12/27 03:12:54;;;;;;;3.47;3.17;;;;;;;13.41;50.78;94291.22;5029882;28;20025;-63
2021/12/27 03:15:22;;;;;;;3.00;2.70;;;;;;;13.37;51.10;94274.34;5012277;28;20029;-63
2021/12/27 03:17:48;;;;;;;2.90;2.70;;;;;;;13.40;51.08;94281.66;5029887;28;20017;-64
2021/12/27 03:20:16;;;;;;;3.72;3.33;;;;;;;13.17;50.95;94252.06;5028858;28;20518;-63
2021/12/27 03:22:42;;;;;;;3.15;2.85;;;;;;;13.34;51.15;94289.16;5029459;28;20556;-63
2021/12/27 03:25:10;;;;;;;3.38;2.75;;;;;;;13.33;50.98;94279.59;5029650;28;20030;-63
2021/12/27 03:27:36;;;;;;;2.88;2.67;;;;;;;13.31;51.10;94262.34;5029793;28;20025;-63
2021/12/27 03:30:08;;;;;;;3.03;2.35;;;;;;;13.35;50.59;94263.22;5028361;28;20041;-63
2021/12/27 03:32:36;;;;;;;2.80;2.60;;;;;;;13.45;50.80;94274.16;5028720;28;20032;-63
2021/12/27 03:35:04;;;;;;;4.30;3.20;;;;;;;13.43;50.50;94275.66;5027845;28;20037;-63
2021/12/27 03:37:30;;;;;;;3.00;2.80;;;;;;;13.37;50.86;94264.44;5029522;28;20021;-63
2021/12/27 03:39:55;;;;;;;2.53;2.33;;;;;;;13.39;50.74;94258.75;5028596;28;20116;-64
2021/12/27 03:42:21;;;;;;;3.45;3.15;;;;;;;13.49;50.75;94266.25;5029524;28;20112;-63
2021/12/27 03:44:47;;;;;;;2.67;2.47;;;;;;;13.42;50.79;94261.53;5029346;28;20029;-63
2021/12/27 03:47:12;;;;;;;3.20;2.63;;;;;;;13.51;50.57;94270.16;5011872;28;20022;-64
2021/12/27 03:49:38;;;;;;;3.83;2.67;;;;;;;13.33;50.40;94252.88;5034644;28;20618;-63
2021/12/27 03:52:03;;;;;;;2.67;2.50;;;;;;;12.95;50.68;94197.31;5021894;28;20022;-63
2021/12/27 03:54:29;;;;;;;2.70;2.50;;;;;;;13.35;50.76;94269.31;5029440;28;20023;-63
2021/12/27 03:56:54;;;;;;;3.30;3.00;;;;;;;13.12;50.67;94237.06;5029557;28;20656;-63
2021/12/27 03:59:35;;;;;;;2.90;2.70;;;;;;;13.26;50.83;94256.16;5028546;28;20079;-63
2021/12/27 04:02:01;;;;;;;3.23;2.93;;;;;;;13.09;50.83;94251.06;5029577;28;20026;-63
2021/12/27 04:04:26;;;;;;;3.22;2.67;;;;;;;13.03;50.81;94247.09;5016973;28;20039;-63
2021/12/27 04:06:52;;;;;;;2.38;2.20;;;;;;;12.88;50.87;94227.25;5011391;28;20030;-63
2021/12/27 04:09:17;;;;;;;3.13;2.92;;;;;;;12.83;51.07;94235.50;5028322;28;20018;-63
2021/12/27 04:11:43;;;;;;;4.10;2.50;;;;;;;13.00;51.33;94258.47;5029190;28;20037;-64
2021/12/27 04:14:08;;;;;;;3.10;2.80;;;;;;;12.82;51.29;94231.28;5011512;28;20071;-63
2021/12/27 04:16:34;;;;;;;2.85;2.65;;;;;;;12.87;51.16;94222.25;5029223;28;20105;-63
2021/12/27 04:18:59;;;;;;;2.38;2.17;;;;;;;13.02;50.93;94250.88;5033161;28;20573;-65
2021/12/27 04:21:25;;;;;;;2.72;2.53;;;;;;;13.05;50.97;94262.75;5028716;28;20101;-63
2021/12/27 04:23:50;;;;;;;3.13;2.17;;;;;;;13.02;50.93;94253.56;5029087;28;20029;-63
2021/12/27 04:26:15;;;;;;;1.85;1.75;;;;;;;12.91;50.75;94247.16;5028989;28;20715;-63
2021/12/27 04:28:41;;;;;;;2.80;2.60;;;;;;;12.94;50.93;94262.47;5011004;28;20026;-63
2021/12/27 04:31:06;;;;;;;2.70;2.50;;;;;;;12.73;51.27;94249.31;5028601;28;20537;-63
2021/12/27 04:33:31;;;;;;;4.47;3.17;;;;;;;12.57;51.22;94238.59;5033400;28;20017;-63
2021/12/27 04:35:57;;;;;;;2.40;2.05;;;;;;;12.59;51.15;94247.03;5028816;28;20018;-63
2021/12/27 04:38:22;;;;;;;2.90;2.60;;;;;;;12.70;51.35;94264.13;5028516;28;20026;-63
2021/12/27 04:40:50;;;;;;;3.28;2.97;;;;;;;12.62;51.26;94264.25;5028685;28;20105;-63
2021/12/27 04:43:19;;;;;;;3.33;3.03;;;;;;;12.44;51.29;94261.84;5032391;28;20422;-63
2021/12/27 04:45:45;;;;;;;3.92;3.35;;;;;;;12.38;51.69;94271.19;5032606;28;20021;-63
2021/12/27 04:48:11;;;;;;;3.10;2.90;;;;;;;12.25;52.10;94264.31;5015789;28;20056;-63
2021/12/27 04:50:37;;;;;;;2.78;2.55;;;;;;;12.33;52.29;94273.31;5034671;28;20562;-63
2021/12/27 04:53:03;;;;;;;2.83;2.40;;;;;;;12.18;52.00;94237.44;5032418;28;20079;-63
2021/12/27 04:55:30;;;;;;;4.28;3.38;;;;;;;12.17;52.29;94234.00;5032417;28;20116;-63
2021/12/27 04:57:56;;;;;;;3.80;3.50;;;;;;;12.37;51.89;94242.19;5032236;28;20025;-63
2021/12/27 05:00:22;;;;;;;3.78;3.20;;;;;;;12.34;51.59;94230.31;5031624;28;20026;-63
2021/12/27 05:02:48;;;;;;;3.53;2.85;;;;;;;12.28;51.59;94215.66;5032335;28;20021;-63
2021/12/27 05:05:13;;;;;;;4.28;3.65;;;;;;;12.55;51.92;94251.50;5035410;28;20113;-63
2021/12/27 05:07:39;;;;;;;3.42;3.13;;;;;;;12.47;51.71;94242.50;5031845;28;20036;-63
2021/12/27 05:10:05;;;;;;;2.72;2.53;;;;;;;12.43;51.43;94246.16;5031663;28;20025;-63
2021/12/27 05:12:31;;;;;;;3.05;2.85;;;;;;;12.60;51.79;94250.50;5032148;28;20033;-63
2021/12/27 05:14:56;;;;;;;3.00;2.80;;;;;;;12.59;51.47;94247.03;5031962;28;20685;-63
2021/12/27 05:17:22;;;;;;;2.75;2.50;;;;;;;12.43;51.19;94238.94;5032128;28;20017;-63
2021/12/27 05:19:47;;;;;;;2.80;2.60;;;;;;;12.59;51.74;94265.72;5033731;28;20025;-63
2021/12/27 05:22:13;;;;;;;2.65;2.42;;;;;;;12.44;51.70;94245.09;5014019;28;20017;-63
2021/12/27 05:24:39;;;;;;;3.00;2.80;;;;;;;12.42;51.65;94232.06;5014157;28;20029;-63
2021/12/27 05:27:04;;;;;;;3.72;3.42;;;;;;;12.62;51.72;94259.69;5014457;28;20388;-63
2021/12/27 05:29:30;;;;;;;2.65;2.45;;;;;;;12.62;51.44;94262.34;5031320;28;20032;-63
2021/12/27 05:32:01;;;;;;;3.55;3.22;;;;;;;12.62;51.58;94253.59;5031757;28;20033;-63
2021/12/27 05:34:26;;;;;;;2.70;2.50;;;;;;;12.45;51.54;94234.06;5033929;28;20036;-63
2021/12/27 05:36:52;;;;;;;6.00;2.85;;;;;;;12.39;51.59;94235.44;5031504;28;20029;-63
2021/12/27 05:39:19;;;;;;;3.78;3.42;;;;;;;12.48;51.75;94251.28;5030911;28;20057;-63
2021/12/27 05:41:45;;;;;;;3.88;3.58;;;;;;;12.45;51.86;94233.28;5013699;28;20405;-63
2021/12/27 05:44:10;;;;;;;3.70;3.40;;;;;;;12.56;51.70;94253.03;5013817;28;20113;-63
2021/12/27 05:46:36;;;;;;;5.30;3.05;;;;;;;12.42;52.18;94247.28;5031532;28;20032;-63
2021/12/27 05:49:02;;;;;;;3.75;3.45;;;;;;;12.38;51.96;94243.75;5032216;28;20121;-64
2021/12/27 05:51:28;;;;;;;5.38;4.43;;;;;;;12.21;52.80;94250.88;5031322;28;20112;-63
2021/12/27 05:53:53;;;;;;;5.18;3.90;;;;;;;12.23;52.54;94247.88;5030559;28;20113;-63
2021/12/27 05:56:19;;;;;;;5.32;4.38;;;;;;;12.05;52.68;94219.91;5013583;28;20030;-63
2021/12/27 05:58:45;;;;;;;3.80;3.42;;;;;;;12.22;52.32;94247.09;5030999;28;20083;-63
2021/12/27 06:01:10;;;;;;;3.67;3.38;;;;;;;12.10;52.32;94219.69;5030895;28;20025;-63
2021/12/27 06:03:36;;;;;;;4.22;3.83;;;;;;;12.12;52.31;94194.25;5032462;28;20071;-62
2021/12/27 06:06:01;;;;;;;6.47;4.88;;;;;;;12.29;52.17;94221.78;5013012;28;20053;-61
2021/12/27 06:08:27;;;;;;;4.75;3.28;;;;;;;12.31;52.14;94217.66;5030629;28;20057;-62
2021/12/27 06:10:52;;;;;;;5.55;3.33;;;;;;;12.17;51.45;94194.00;5030670;28;20026;-62
2021/12/27 06:13:17;;;;;;;3.58;3.13;;;;;;;12.36;51.70;94214.75;5030930;28;20385;-62
2021/12/27 06:15:43;;;;;;;4.80;3.78;;;;;;;12.23;51.78;94198.03;5030996;28;20763;-62
2021/12/27 06:18:08;;;;;;;3.83;3.40;;;;;;;12.21;51.55;94186.91;5030543;28;20030;-62
2021/12/27 06:20:34;;;;;;;8.18;5.03;;;;;;;12.56;51.58;94237.03;5012351;28;20155;-62
2021/12/27 06:22:59;;;;;;;4.95;4.00;;;;;;;12.47;51.55;94218.50;5030599;28;20021;-62
2021/12/27 06:25:25;;;;;;;5.20;4.38;;;;;;;12.53;51.74;94242.25;5031073;28;20032;-62
2021/12/27 06:27:51;;;;;;;6.50;3.70;;;;;;;11.95;51.66;94157.19;5013118;28;20029;-62
2021/12/27 06:30:16;;;;;;;3.90;3.45;;;;;;;12.42;51.47;94231.28;5029703;28;20038;-62
2021/12/27 06:32:45;;;;;;;3.90;3.55;;;;;;;12.29;51.45;94227.88;5030749;28;20059;-64
2021/12/27 06:35:12;;;;;;;8.82;4.80;;;;;;;12.22;51.43;94220.44;5030514;28;20116;-62
2021/12/27 06:37:40;;;;;;;6.07;5.53;;;;;;;11.93;51.50;94186.06;5030414;28;20036;-62
2021/12/27 06:40:06;;;;;;;5.75;5.07;;;;;;;12.12;51.58;94233.44;5029708;28;20036;-64
2021/12/27 06:42:31;;;;;;;6.47;4.55;;;;;;;11.81;51.70;94208.13;5030453;28;20029;-64
2021/12/27 06:44:57;;;;;;;9.93;6.13;;;;;;;11.71;52.48;94216.56;5030528;28;20022;-64
2021/12/27 06:47:22;;;;;;;7.60;5.43;;;;;;;11.62;52.13;94215.91;5030479;28;20030;-66
2021/12/27 06:49:48;;;;;;;6.38;5.72;;;;;;;10.74;52.61;94106.22;5030188;28;20063;-65
2021/12/27 06:52:14;;;;;;;9.63;5.80;;;;;;;11.45;52.77;94227.53;5012343;28;20029;-65
2021/12/27 06:54:40;;;;;;;11.75;6.75;;;;;;;11.41;52.67;94229.28;5030319;28;20113;-65
2021/12/27 06:57:07;;;;;;;9.77;6.10;;;;;;;11.28;53.59;94223.19;5030188;28;20476;-65
2021/12/27 06:59:32;;;;;;;7.50;6.80;;;;;;;11.19;52.91;94209.97;5029548;28;20107;-66
2021/12/27 07:01:57;;;;;;;11.52;7.00;;;;;;;11.30;53.21;94218.28;5012367;28;20061;-66
2021/12/27 07:04:24;;;;;;;7.22;6.53;;;;;;;11.36;53.18;94221.53;5029328;28;20029;-66
2021/12/27 07:06:49;;;;;;;11.02;6.03;;;;;;;11.28;53.53;94204.56;5029345;28;20033;-65
2021/12/27 07:09:15;;;;;;;11.43;6.22;;;;;;;11.38;52.84;94219.31;5029071;28;20048;-66
2021/12/27 07:11:41;;;;;;;6.93;6.22;;;;;;;11.40;53.33;94215.22;5029785;28;20181;-66
2021/12/27 07:14:07;;;;;;;7.22;5.18;;;;;;;11.61;53.30;94247.06;5029917;28;20033;-65
2021/12/27 07:16:32;;;;;;;6.03;4.63;;;;;;;11.62;53.01;94232.66;5029742;28;20079;-66
2021/12/27 07:18:58;;;;;;;9.73;5.22;;;;;;;11.82;53.03;94236.34;5013396;28;20030;-66
2021/12/27 07:21:23;;;;;;;8.27;5.18;;;;;;;11.80;53.39;94213.78;5033842;28;20017;-66
2021/12/27 07:23:48;;;;;;;12.65;6.72;;;;;;;11.50;53.29;94154.63;5029398;28;20037;-65
2021/12/27 07:26:14;;;;;;;15.52;6.22;;;;;;;11.97;52.49;94206.34;5029472;28;20113;-65
2021/12/27 07:28:40;;;;;;;9.02;4.97;;;;;;;12.28;52.13;94226.31;5029055;28;20071;-65
2021/12/27 07:31:07;;;;;;;5.07;3.80;;;;;;;12.39;52.16;94222.09;5029330;28;20025;-65
2021/12/27 07:33:32;;;;;;;5.50;4.30;;;;;;;12.28;51.99;94191.66;5011911;28;20026;-65
2021/12/27 07:35:58;;;;;;;4.53;3.60;;;;;;;12.57;51.74;94225.25;5035321;28;20371;-66
2021/12/27 07:38:24;;;;;;;7.13;4.85;;;;;;;12.70;51.71;94232.09;5029253;28;20026;-63
2021/12/27 07:40:49;;;;;;;3.88;3.30;;;;;;;12.71;51.65;94216.88;5028836;28;20032;-63
2021/12/27 07:43:15;;;;;;;4.63;3.42;;;;;;;12.88;51.31;94219.25;5011875;28;20021;-65
2021/12/27 07:45:40;;;;;;;5.18;4.00;;;;;;;12.85;50.68;94227.16;5029322;28;20037;-64
2021/12/27 07:48:07;;;;;;;5.55;3.67;;;;;;;12.72;50.82;94199.75;5029167;28;20017;-63
2021/12/27 07:50:34;;;;;;;5.05;4.05;;;;;;;12.73;50.91;94202.06;5034519;28;20109;-63
2021/12/27 07:53:00;;;;;;;3.50;3.20;;;;;;;12.81;51.05;94212.94;5029628;28;20121;-63
2021/12/27 07:55:27;;;;;;;3.40;3.10;;;;;;;12.81;50.76;94208.38;5029219;28;20033;-63
2021/12/27 07:57:54;;;;;;;3.05;2.83;;;;;;;12.95;50.86;94214.13;5029319;28;20026;-66
2021/12/27 08:00:19;;;;;;;3.78;3.22;;;;;;;13.04;50.52;94200.59;5028557;28;20032;-64
2021/12/27 08:02:45;;;;;;;5.32;4.18;;;;;;;13.14;50.40;94202.00;5011825;28;20018;-63
2021/12/27 08:05:10;;;;;;;3.92;3.53;;;;;;;13.14;50.22;94213.44;5033841;28;20035;-66
2021/12/27 08:07:36;;;;;;;3.50;2.60;;;;;;;12.96;50.22;94196.19;5028866;28;20029;-62
2021/12/27 08:10:03;;;;;;;3.28;3.00;;;;;;;12.92;50.33;94212.13;5010636;28;20112;-62
2021/12/27 08:12:28;;;;;;;4.13;3.60;;;;;;;12.89;50.31;94207.44;5011581;28;20061;-64
2021/12/27 08:14:53;;;;;;;4.10;3.55;;;;;;;12.33;51.94;94190.63;5028768;28;20057;-66
2021/12/27 08:17:19;;;;;;;3.92;3.35;;;;;;;12.58;51.42;94212.69;5031334;28;20036;-66
2021/12/27 08:19:45;;;;;;;4.43;4.03;;;;;;;12.28;51.77;94177.53;5036830;28;20013;-66
2021/12/27 08:22:11;;;;;;;5.20;4.00;;;;;;;12.33;51.46;94204.75;5032550;28;20030;-66
2021/12/27 08:24:36;;;;;;;5.15;3.80;;;;;;;12.16;52.05;94191.69;5032758;28;20029;-65
2021/12/27 08:27:03;;;;;;;3.90;3.58;;;;;;;12.14;52.83;94200.03;5032648;28;20026;-66
2021/12/27 08:29:29;;;;;;;4.20;3.80;;;;;;;12.40;52.35;94198.84;5032194;28;20017;-65
2021/12/27 08:31:54;;;;;;;5.88;4.60;;;;;;;12.58;51.37;94186.00;5032844;28;20033;-66
2021/12/27 08:34:20;;;;;;;3.72;2.97;;;;;;;12.79;51.17;94194.59;5035440;28;20033;-63
2021/12/27 08:36:45;;;;;;;4.15;3.22;;;;;;;12.78;50.78;94171.69;5034995;28;20030;-66
2021/12/27 08:39:11;;;;;;;6.32;2.90;;;;;;;12.72;50.41;94152.50;5031818;28;20512;-64
2021/12/27 08:41:36;;;;;;;3.78;2.90;;;;;;;13.05;50.16;94166.66;5015209;28;20131;-64
2021/12/27 08:44:04;;;;;;;5.57;2.92;;;;;;;13.27;50.01;94198.94;5014908;28;20044;-64
2021/12/27 08:46:31;;;;;;;6.38;3.03;;;;;;;13.34;49.72;94190.31;5032611;28;20030;-64
2021/12/27 08:48:56;;;;;;;3.83;3.20;;;;;;;13.38;49.51;94177.84;5014134;28;20682;-66
2021/12/27 08:51:23;;;;;;;3.33;3.03;;;;;;;13.41;49.21;94163.00;5017249;28;20025;-64
2021/12/27 08:53:49;;;;;;;3.17;2.92;;;;;;;13.54;49.45;94164.47;5031917;28;20069;-65
2021/12/27 08:56:16;;;;;;;2.78;2.50;;;;;;;13.93;49.11;94184.09;5032529;28;20032;-66
2021/12/27 08:58:41;;;;;;;2.85;2.58;;;;;;;14.05;48.77;94175.19;5032023;28;20030;-64
2021/12/27 09:01:07;;;;;;;3.08;2.72;;;;;;;14.27;48.05;94179.84;5022511;28;20399;-64
2021/12/27 09:03:33;;;;;;;3.55;2.67;;;;;;;14.52;47.98;94188.44;4983126;28;20050;-64
2021/12/27 09:05:59;;;;;;;2.40;2.20;;;;;;;14.67;47.84;94192.16;4979520;28;20791;-64
2021/12/27 09:08:24;;;;;;;2.55;2.35;;;;;;;14.79;47.62;94189.38;4972111;28;20065;-64
2021/12/27 09:10:49;;;;;;;3.75;2.58;;;;;;;14.85;47.36;94187.16;4998314;28;20488;-63
2021/12/27 09:13:15;;;;;;;3.00;2.65;;;;;;;14.75;47.02;94182.38;4992956;28;20488;-66
2021/12/27 09:15:40;;;;;;;3.00;2.70;;;;;;;14.70;47.11;94171.97;4992596;28;20023;-65
2021/12/27 09:18:05;;;;;;;4.03;2.60;;;;;;;14.98;46.85;94172.47;4992277;28;20061;-66
2021/12/27 09:20:31;;;;;;;3.97;2.60;;;;;;;14.96;46.40;94156.00;4991518;28;20037;-63
2021/12/27 09:22:57;;;;;;;4.60;2.83;;;;;;;15.05;46.25;94163.81;4992207;28;20026;-66
2021/12/27 09:25:22;;;;;;;4.78;2.45;;;;;;;15.07;45.78;94143.56;4992371;28;20026;-63
2021/12/27 09:27:48;;;;;;;3.30;2.20;;;;;;;15.21;45.56;94169.06;4991496;28;20081;-65
2021/12/27 09:30:14;;;;;;;3.28;2.05;;;;;;;15.15;45.77;94165.13;4991810;28;20030;-64
2021/12/27 09:32:39;;;;;;;3.15;2.10;;;;;;;14.83;45.89;94144.66;5007542;28;20073;-65
2021/12/27 09:35:05;;;;;;;2.92;2.55;;;;;;;14.75;46.47;94145.69;4991714;28;20467;-65
2021/12/27 09:37:31;;;;;;;2.70;2.28;;;;;;;14.40;46.51;94132.34;4991585;28;20030;-65
2021/12/27 09:39:56;;;;;;;3.42;2.63;;;;;;;14.44;47.06;94159.19;4991357;28;20480;-64
2021/12/27 09:42:26;;;;;;;3.28;2.92;;;;;;;14.18;47.81;94149.88;4992209;28;20026;-63
2021/12/27 09:44:54;;;;;;;2.35;2.15;;;;;;;13.99;48.20;94134.56;5007340;28;20035;-63
2021/12/27 09:47:20;;;;;;;3.47;2.75;;;;;;;14.08;48.15;94158.44;4990566;28;20042;-66
2021/12/27 09:49:47;;;;;;;3.92;2.58;;;;;;;14.05;48.93;94162.59;4990690;28;20026;-65
2021/12/27 09:52:13;;;;;;;3.20;2.53;;;;;;;14.03;49.19;94166.75;4991657;28;20113;-63
2021/12/27 09:54:39;;;;;;;2.80;2.35;;;;;;;13.93;49.06;94140.56;4992031;28;20117;-65
2021/12/27 09:57:05;;;;;;;4.53;3.17;;;;;;;13.68;49.00;94108.69;4991935;28;20481;-65
2021/12/27 09:59:30;;;;;;;4.03;2.00;;;;;;;13.82;48.83;94121.59;4991509;28;20034;-64
2021/12/27 10:01:56;;;;;;;3.95;2.42;;;;;;;13.79;49.12;94109.69;4992187;28;20038;-64
2021/12/27 10:04:21;;;;;;;2.75;2.40;;;;;;;13.90;49.42;94136.66;4990870;28;20026;-64
2021/12/27 10:06:51;;;;;;;11.77;2.83;;;;;;;14.00;49.55;94133.44;4990988;28;20034;-64
2021/12/27 10:09:17;;;;;;;2.92;1.98;;;;;;;13.89;49.44;94129.78;4991269;28;20034;-64
2021/12/27 10:11:46;;;;;;;2.28;1.90;;;;;;;13.96;49.52;94139.84;4991924;28;20039;-65
2021/12/27 10:14:17;;;;;;;2.47;1.60;;;;;;;13.95;49.76;94132.94;4991917;28;20026;-65
2021/12/27 10:16:52;;;;;;;2.78;1.40;;;;;;;13.95;49.47;94122.25;4991726;28;20030;-66
2021/12/27 10:19:19;;;;;;;3.90;2.22;;;;;;;14.11;49.48;94098.13;4991141;28;20061;-66
2021/12/27 10:21:49;;;;;;;2.58;2.00;;;;;;;14.48;48.95;94101.19;4990805;28;20034;-64
2021/12/27 10:24:29;;;;;;;2.47;1.27;;;;;;;14.76;48.52;94111.66;5006565;28;20057;-64
2021/12/27 10:27:00;;;;;;;1.67;1.58;;;;;;;15.07;48.14;94116.78;4991713;28;20030;-63
2021/12/27 10:29:27;;;;;;;2.63;1.70;;;;;;;15.11;47.83;94108.06;5005767;28;20034;-65
2021/12/27 10:32:16;;;;;;;1.50;1.40;;;;;;;15.22;47.49;94119.72;4991457;28;20057;-66
2021/12/27 10:34:52;;;;;;;1.30;1.20;;;;;;;15.43;47.29;94124.66;5005215;28;20507;-66
2021/12/27 10:37:29;;;;;;;3.35;2.30;;;;;;;15.49;47.61;94129.34;4991063;28;20026;-66
2021/12/27 10:39:55;;;;;;;2.30;1.23;;;;;;;15.48;47.81;94119.75;4988931;28;20491;-65
2021/12/27 10:42:27;;;;;;;2.55;1.67;;;;;;;15.48;48.06;94125.13;4991241;28;20026;-65
2021/12/27 10:44:58;;;;;;;3.55;1.60;;;;;;;15.46;48.17;94110.53;4991214;28;20510;-65
2021/12/27 10:47:29;;;;;;;2.30;1.45;;;;;;;15.56;48.03;94118.75;4990845;28;20038;-65
2021/12/27 10:50:02;;;;;;;2.75;1.50;;;;;;;15.55;48.28;94116.41;4989584;28;20523;-64
2021/12/27 10:53:01;;;;;;;2.40;2.00;;;;;;;15.52;47.94;94101.81;5005800;28;20520;-64
2021/12/27 10:55:43;;;;;;;2.17;1.25;;;;;;;15.50;48.19;94100.63;4968530;28;20042;-65
2021/12/27 10:58:24;;;;;;;2.47;1.25;;;;;;;15.47;47.89;94083.38;4990532;28;20026;-67
2021/12/27 11:00:51;;;;;;;2.28;1.45;;;;;;;15.11;48.42;94020.44;4990237;28;20027;-67
2021/12/27 11:03:31;;;;;;;2.22;1.13;;;;;;;15.52;48.46;94084.97;4990705;28;20022;-66
2021/12/27 11:05:59;;;;;;;1.67;1.50;;;;;;;15.42;48.69;94072.19;4990124;28;20110;-67
2021/12/27 11:08:26;;;;;;;1.52;1.23;;;;;;;15.35;48.34;94056.75;4990018;28;20265;-65
2021/12/27 11:10:53;;;;;;;1.90;1.80;;;;;;;15.43;48.50;94071.06;4989893;28;20026;-65
2021/12/27 11:13:18;;;;;;;1.73;1.60;;;;;;;15.50;48.36;94077.28;4990576;28;20026;-65
2021/12/27 11:15:44;;;;;;;1.95;1.63;;;;;;;15.45;48.64;94069.53;4989160;28;20431;-66
2021/12/27 11:18:12;;;;;;;1.90;1.67;;;;;;;15.50;48.87;94065.78;4990078;28;20114;-65
2021/12/27 11:20:43;;;;;;;3.45;1.50;;;;;;;15.42;49.12;94056.13;4989331;28;20668;-65
2021/12/27 11:23:10;;;;;;;2.17;1.60;;;;;;;14.75;49.33;93954.84;4990233;28;20660;-65
2021/12/27 11:25:38;;;;;;;1.90;1.58;;;;;;;15.38;49.08;94029.25;4990341;28;20030;-66
2021/12/27 11:28:06;;;;;;;2.10;1.70;;;;;;;15.29;49.24;94036.78;4990484;28;20054;-66
2021/12/27 11:30:34;;;;;;;1.50;1.40;;;;;;;15.25;48.93;94035.94;4990194;28;20031;-66
2021/12/27 11:33:16;;;;;;;1.33;1.23;;;;;;;15.30;48.70;94027.59;5005803;28;20029;-65
2021/12/27 11:35:57;;;;;;;1.00;0.90;;;;;;;15.31;48.94;94024.56;4985792;28;20034;-66